Time;durP1;ratioP1;P1;durP2;ratioP2;P2;SDS_P1;SDS_P2;PMS_P1;PMS_P2;Temp;Humidity;BMP_temperature;BMP_pressure;BME280_temperature;BME280_humidity;BME280_pressure;Samples;Min_cycle;Max_cycle;Signal;HPM_P1;HPM_P2
2021/08/15 00:01:45;;;;;;;15.68;8.95;;;;;;;18.06;93.69;98769.56;5043189;28;20055;-70
2021/08/15 00:04:10;;;;;;;16.05;8.60;;;;;;;18.09;93.84;98780.06;5043372;28;20021;-70
2021/08/15 00:06:36;;;;;;;14.30;9.77;;;;;;;18.07;93.86;98776.63;5043382;28;20071;-70
2021/08/15 00:09:02;;;;;;;13.27;8.52;;;;;;;18.09;93.55;98774.75;5043337;28;20021;-70
2021/08/15 00:11:27;;;;;;;14.95;9.05;;;;;;;17.95;93.51;98771.88;5043324;28;20031;-70
2021/08/15 00:13:53;;;;;;;16.83;8.48;;;;;;;17.79;93.85;98766.41;5042083;28;20097;-70
2021/08/15 00:16:18;;;;;;;16.88;8.80;;;;;;;17.88;93.61;98775.75;5043196;28;20084;-70
2021/08/15 00:18:44;;;;;;;16.63;8.57;;;;;;;17.73;93.57;98773.78;5043988;28;20048;-70
2021/08/15 00:21:12;;;;;;;14.40;9.45;;;;;;;17.72;94.26;98769.41;5046830;28;20041;-70
2021/08/15 00:23:38;;;;;;;13.70;9.18;;;;;;;17.75;94.15;98778.09;5050642;28;20074;-70
2021/08/15 00:26:03;;;;;;;18.25;9.60;;;;;;;17.75;94.05;98774.59;5066731;28;20324;-70
2021/08/15 00:28:29;;;;;;;15.50;9.05;;;;;;;17.70;94.08;98760.63;5066686;28;20020;-70
2021/08/15 00:30:54;;;;;;;18.08;9.05;;;;;;;17.65;93.77;98760.00;5066930;28;20020;-70
2021/08/15 00:33:19;;;;;;;15.73;8.88;;;;;;;17.69;93.90;98764.22;5066515;28;20088;-70
2021/08/15 00:35:45;;;;;;;18.42;9.68;;;;;;;17.63;93.75;98749.41;5066520;28;20093;-70
2021/08/15 00:38:10;;;;;;;15.57;8.52;;;;;;;17.64;93.24;98750.25;5049667;28;20317;-70
2021/08/15 00:40:36;;;;;;;11.82;9.02;;;;;;;17.54;93.22;98743.63;5046507;28;20169;-70
2021/08/15 00:43:01;;;;;;;12.65;9.15;;;;;;;17.40;93.43;98746.03;5046441;28;20021;-70
2021/08/15 00:45:27;;;;;;;14.68;8.63;;;;;;;17.37;93.54;98743.50;5046370;28;20393;-70
2021/08/15 00:47:52;;;;;;;14.85;9.25;;;;;;;17.20;93.97;98739.78;5046429;28;20244;-70
2021/08/15 00:50:18;;;;;;;13.85;8.95;;;;;;;17.30;94.08;98750.03;5046272;28;20251;-70
2021/08/15 00:52:44;;;;;;;15.82;9.32;;;;;;;17.28;93.70;98740.28;5046198;28;20084;-70
2021/08/15 00:55:11;;;;;;;15.50;9.68;;;;;;;17.05;93.85;98740.44;5046202;28;20060;-70
2021/08/15 00:57:40;;;;;;;20.30;10.40;;;;;;;17.05;94.54;98735.13;5054340;28;20050;-69
2021/08/15 01:00:08;;;;;;;17.42;8.63;;;;;;;17.07;94.11;98733.28;5066079;28;20340;-69
2021/08/15 01:02:35;;;;;;;17.45;8.77;;;;;;;17.02;93.96;98729.94;5065858;28;20063;-69
2021/08/15 01:05:01;;;;;;;10.60;8.05;;;;;;;16.97;93.55;98742.59;5064854;28;20320;-69
2021/08/15 01:07:27;;;;;;;14.60;8.77;;;;;;;16.98;94.08;98732.81;5065912;28;20324;-69
2021/08/15 01:09:52;;;;;;;12.25;8.32;;;;;;;16.96;94.00;98730.19;5065897;28;20092;-69
2021/08/15 01:12:18;;;;;;;16.05;9.13;;;;;;;16.99;93.67;98729.19;5065428;28;20021;-69
2021/08/15 01:14:45;;;;;;;14.52;8.45;;;;;;;16.90;93.37;98726.97;5045821;28;20067;-69
2021/08/15 01:17:10;;;;;;;15.02;8.65;;;;;;;16.80;93.44;98729.13;5045844;28;20021;-69
2021/08/15 01:19:35;;;;;;;11.13;7.68;;;;;;;16.87;93.28;98719.97;5045780;28;20025;-69
2021/08/15 01:22:03;;;;;;;12.20;7.70;;;;;;;16.74;93.49;98734.72;5049050;28;20040;-69
2021/08/15 01:24:29;;;;;;;11.48;8.15;;;;;;;16.74;93.55;98721.41;5065665;28;20012;-69
2021/08/15 01:26:59;;;;;;;13.00;7.70;;;;;;;16.82;93.87;98721.97;5065604;28;20378;-69
2021/08/15 01:29:26;;;;;;;10.82;8.05;;;;;;;16.83;93.14;98717.50;5063690;28;20021;-69
2021/08/15 01:31:52;;;;;;;12.77;8.27;;;;;;;16.72;93.49;98714.44;5065501;28;20028;-69
2021/08/15 01:34:17;;;;;;;17.85;7.93;;;;;;;16.69;93.81;98747.34;5065376;28;20037;-69
2021/08/15 01:36:43;;;;;;;15.07;7.63;;;;;;;16.72;93.98;98720.63;5065411;28;20312;-69
2021/08/15 01:39:08;;;;;;;11.57;7.10;;;;;;;16.72;94.04;98723.28;5065341;28;20032;-69
2021/08/15 01:41:33;;;;;;;11.73;7.25;;;;;;;16.64;93.56;98709.44;5065424;28;20024;-69
2021/08/15 01:44:01;;;;;;;18.17;7.93;;;;;;;16.58;94.00;98709.72;5065253;28;20021;-69
2021/08/15 01:46:29;;;;;;;12.95;7.47;;;;;;;16.69;93.93;98715.44;5060717;28;20048;-69
2021/08/15 01:48:55;;;;;;;42.30;7.57;;;;;;;16.53;94.00;98703.75;5045122;28;20071;-69
2021/08/15 01:51:21;;;;;;;20.73;7.47;;;;;;;16.54;93.80;98705.47;5045136;28;20036;-69
2021/08/15 01:53:49;;;;;;;26.30;8.57;;;;;;;16.35;93.57;98693.84;5045016;28;20029;-69
2021/08/15 01:56:15;;;;;;;13.60;8.00;;;;;;;16.35;95.19;98693.84;5045045;28;20088;-69
2021/08/15 01:58:41;;;;;;;10.32;7.82;;;;;;;16.35;94.56;98703.59;5055647;28;20021;-71
2021/08/15 02:01:06;;;;;;;32.63;8.85;;;;;;;16.28;94.64;98745.50;5064780;28;20120;-70
2021/08/15 02:03:32;;;;;;;10.13;6.90;;;;;;;16.31;94.68;98795.84;5063401;28;20032;-70
2021/08/15 02:05:57;;;;;;;9.85;7.20;;;;;;;16.33;93.77;98791.31;5064844;28;20373;-70
2021/08/15 02:08:23;;;;;;;10.70;6.70;;;;;;;16.22;94.07;98788.22;5064959;28;20075;-69
2021/08/15 02:10:50;;;;;;;10.73;6.97;;;;;;;16.33;93.82;98811.72;5064182;28;20043;-69
2021/08/15 02:13:15;;;;;;;12.27;6.68;;;;;;;16.22;93.49;98817.44;5064630;28;20029;-69
2021/08/15 02:15:40;;;;;;;7.75;6.00;;;;;;;16.25;93.71;98822.63;5064648;28;20040;-69
2021/08/15 02:18:06;;;;;;;9.77;6.28;;;;;;;16.30;93.63;98828.63;5064636;28;20027;-69
2021/08/15 02:20:34;;;;;;;12.25;6.70;;;;;;;16.32;93.62;98826.78;5053491;28;20075;-69
2021/08/15 02:22:59;;;;;;;8.82;7.18;;;;;;;16.27;93.60;98847.34;5044738;28;20049;-69
2021/08/15 02:25:25;;;;;;;13.65;6.85;;;;;;;16.26;93.50;98850.06;5043372;28;20202;-69
2021/08/15 02:27:51;;;;;;;18.23;6.90;;;;;;;16.19;93.36;98868.03;5043336;28;20027;-69
2021/08/15 02:30:20;;;;;;;63.10;8.23;;;;;;;16.13;94.03;98862.94;5044411;28;20223;-69
2021/08/15 02:32:45;;;;;;;15.88;7.00;;;;;;;16.04;93.96;98873.06;5043170;28;20244;-69
2021/08/15 02:35:13;;;;;;;14.23;6.47;;;;;;;16.02;93.91;98881.06;5044339;28;20040;-69
2021/08/15 02:37:40;;;;;;;12.10;6.68;;;;;;;16.03;93.25;98893.41;5044355;28;20252;-69
2021/08/15 02:40:08;;;;;;;7.55;5.97;;;;;;;15.95;93.49;98882.19;5044337;28;20025;-69
2021/08/15 02:42:37;;;;;;;9.57;6.45;;;;;;;15.89;93.57;98887.75;5043658;28;20045;-69
2021/08/15 02:45:04;;;;;;;17.80;5.97;;;;;;;15.89;93.47;98900.16;5043079;28;20256;-69
2021/08/15 02:47:29;;;;;;;12.90;6.30;;;;;;;15.82;93.22;98899.50;5043050;28;20067;-69
2021/08/15 02:49:54;;;;;;;8.10;5.97;;;;;;;15.70;93.78;98915.00;5043010;28;20057;-69
2021/08/15 02:52:20;;;;;;;9.73;5.55;;;;;;;15.78;93.70;98908.50;5044167;28;20376;-69
2021/08/15 02:54:45;;;;;;;11.25;5.32;;;;;;;15.87;93.88;98918.78;5043942;28;20025;-69
2021/08/15 02:57:11;;;;;;;6.75;5.45;;;;;;;15.79;93.56;98935.91;5044326;28;20021;-69
2021/08/15 02:59:39;;;;;;;6.28;4.90;;;;;;;15.75;93.74;98929.00;5044597;28;20053;-69
2021/08/15 03:02:14;;;;;;;7.55;5.32;;;;;;;15.89;93.71;98943.50;5063402;28;20044;-69
2021/08/15 03:04:40;;;;;;;12.30;6.30;;;;;;;15.96;93.71;98954.75;5063928;28;20312;-69
2021/08/15 03:07:06;;;;;;;9.25;7.03;;;;;;;16.00;93.75;98957.25;5062777;28;20092;-69
2021/08/15 03:09:31;;;;;;;8.57;6.78;;;;;;;15.98;93.87;98956.44;5063862;28;20017;-69
2021/08/15 03:11:57;;;;;;;8.95;6.90;;;;;;;16.07;93.74;98958.75;5063837;28;20271;-69
2021/08/15 03:14:22;;;;;;;12.32;6.93;;;;;;;16.13;93.49;98977.13;5063719;28;20351;-69
2021/08/15 03:16:48;;;;;;;9.75;7.35;;;;;;;16.14;93.60;98970.88;5063780;28;20024;-69
2021/08/15 03:19:13;;;;;;;9.05;5.72;;;;;;;16.20;93.53;98981.28;5063770;28;20028;-69
2021/08/15 03:21:39;;;;;;;8.68;6.47;;;;;;;16.22;93.45;98990.09;5063730;28;20032;-69
2021/08/15 03:24:05;;;;;;;12.18;8.02;;;;;;;16.23;93.42;98989.16;5063765;28;20017;-69
2021/08/15 03:26:32;;;;;;;8.27;6.03;;;;;;;16.22;93.47;99003.38;5062932;28;20313;-69
2021/08/15 03:28:57;;;;;;;8.85;5.75;;;;;;;16.24;93.40;98998.88;5063676;28;20021;-69
2021/08/15 03:31:23;;;;;;;10.38;6.10;;;;;;;16.19;92.91;99000.81;5063674;28;20029;-69
2021/08/15 03:33:48;;;;;;;16.17;6.22;;;;;;;16.20;93.34;99025.59;5063551;28;20025;-69
2021/08/15 03:36:14;;;;;;;9.45;6.05;;;;;;;16.19;93.13;98989.31;5063644;28;20216;-69
2021/08/15 03:38:39;;;;;;;7.50;6.25;;;;;;;16.10;93.03;98990.50;5062443;28;20063;-69
2021/08/15 03:41:05;;;;;;;7.97;6.35;;;;;;;16.12;93.09;99009.06;5063643;28;20020;-69
2021/08/15 03:43:30;;;;;;;8.65;6.57;;;;;;;16.11;93.41;99013.47;5063535;28;20017;-69
2021/08/15 03:45:55;;;;;;;12.43;6.65;;;;;;;16.16;93.19;99034.56;5063496;28;20024;-69
2021/08/15 03:48:21;;;;;;;11.95;6.70;;;;;;;16.13;93.19;99038.22;5063511;28;20045;-69
2021/08/15 03:50:46;;;;;;;13.80;7.32;;;;;;;16.07;93.17;99038.41;5052889;28;20317;-69
2021/08/15 03:53:12;;;;;;;12.35;7.68;;;;;;;16.01;93.92;99054.56;5044924;28;20022;-69
2021/08/15 03:55:37;;;;;;;13.02;7.90;;;;;;;16.06;94.17;99060.59;5047342;28;20024;-69
2021/08/15 03:58:05;;;;;;;7.45;6.25;;;;;;;16.15;93.61;99068.25;5047321;28;20045;-69
2021/08/15 04:00:39;;;;;;;13.90;6.55;;;;;;;16.06;93.22;99073.88;5054397;28;20016;-69
2021/08/15 04:03:05;;;;;;;12.25;5.90;;;;;;;16.03;93.44;99084.59;5065835;28;20048;-69
2021/08/15 04:05:30;;;;;;;9.95;6.20;;;;;;;16.00;93.17;99090.00;5067135;28;20039;-69
2021/08/15 04:07:56;;;;;;;10.75;6.53;;;;;;;16.02;93.23;99093.50;5067118;28;20046;-69
2021/08/15 04:10:21;;;;;;;11.48;6.47;;;;;;;16.01;93.10;99094.38;5067094;28;20031;-69
2021/08/15 04:12:47;;;;;;;12.80;6.95;;;;;;;15.88;93.47;99100.19;5066974;28;20032;-69
2021/08/15 04:15:12;;;;;;;15.82;7.40;;;;;;;15.86;93.78;99110.84;5066986;28;20217;-69
2021/08/15 04:17:38;;;;;;;15.45;8.50;;;;;;;15.88;94.01;99116.13;5066930;28;20213;-69
2021/08/15 04:20:04;;;;;;;11.98;8.45;;;;;;;15.97;94.14;99124.63;5066866;28;20032;-69
2021/08/15 04:22:29;;;;;;;18.88;8.52;;;;;;;15.98;94.38;99133.47;5066802;28;20021;-69
2021/08/15 04:24:54;;;;;;;15.05;8.48;;;;;;;15.93;93.83;99130.09;5065612;28;20036;-69
2021/08/15 04:27:20;;;;;;;15.93;8.82;;;;;;;15.84;94.02;99141.88;5056626;28;20068;-69
2021/08/15 04:29:45;;;;;;;13.48;8.45;;;;;;;15.84;93.99;99131.25;5045824;28;20096;-69
2021/08/15 04:32:10;;;;;;;11.95;8.13;;;;;;;15.91;94.14;99132.78;5046680;28;20029;-69
2021/08/15 04:34:36;;;;;;;13.98;7.65;;;;;;;15.96;93.39;99138.84;5058920;28;20026;-69
2021/08/15 04:37:04;;;;;;;12.38;7.80;;;;;;;15.94;93.36;99106.13;5066557;28;20079;-69
2021/08/15 04:39:29;;;;;;;13.18;8.35;;;;;;;15.90;93.16;99085.94;5065346;28;20024;-69
2021/08/15 04:41:55;;;;;;;12.13;8.27;;;;;;;15.92;93.02;99102.69;5066446;28;20059;-69
2021/08/15 04:44:20;;;;;;;14.25;8.38;;;;;;;15.95;93.27;99076.00;5065236;28;20028;-69
2021/08/15 04:46:45;;;;;;;14.70;7.88;;;;;;;15.85;92.82;99121.53;5066404;28;20025;-69
2021/08/15 04:49:11;;;;;;;18.50;9.70;;;;;;;15.88;94.10;99222.31;5055332;28;20033;-69
2021/08/15 04:51:36;;;;;;;10.13;6.97;;;;;;;15.92;93.12;99195.59;5046320;28;20071;-69
2021/08/15 04:54:03;;;;;;;12.60;7.25;;;;;;;15.97;92.87;99145.88;5046181;28;20329;-69
2021/08/15 04:56:28;;;;;;;8.93;6.88;;;;;;;15.92;92.51;99123.94;5046187;28;20025;-68
2021/08/15 04:58:53;;;;;;;14.80;7.18;;;;;;;15.87;93.11;99120.53;5046210;28;20029;-68
2021/08/15 05:01:19;;;;;;;10.95;7.10;;;;;;;16.04;92.81;99123.50;5044845;28;20057;-68
2021/08/15 05:03:44;;;;;;;11.52;6.95;;;;;;;16.16;92.59;99090.34;5046136;28;20316;-68
2021/08/15 05:06:10;;;;;;;13.27;7.03;;;;;;;16.21;92.36;99083.97;5045505;28;20025;-68
2021/08/15 05:08:35;;;;;;;11.80;7.40;;;;;;;16.13;92.57;99086.00;5062801;28;20290;-68
2021/08/15 05:11:00;;;;;;;12.60;7.20;;;;;;;16.13;92.80;99059.47;5065936;28;20051;-68
2021/08/15 05:13:27;;;;;;;10.18;6.82;;;;;;;16.20;91.84;99082.22;5065806;28;20052;-68
2021/08/15 05:15:52;;;;;;;9.65;6.80;;;;;;;16.33;92.46;99056.97;5065836;28;20028;-68
2021/08/15 05:18:18;;;;;;;10.93;7.65;;;;;;;16.41;92.31;99038.97;5065762;28;20029;-68
2021/08/15 05:20:43;;;;;;;14.93;8.45;;;;;;;16.69;92.55;99039.72;5056340;28;20030;-68
2021/08/15 05:23:08;;;;;;;14.05;7.15;;;;;;;17.07;91.19;99025.84;5045803;28;20044;-68
2021/08/15 05:25:34;;;;;;;10.32;6.32;;;;;;;17.66;88.94;99026.13;5045695;28;20070;-68
2021/08/15 05:27:59;;;;;;;13.43;6.82;;;;;;;18.14;86.31;99012.50;5045647;28;20067;-69
2021/08/15 05:30:25;;;;;;;13.52;6.18;;;;;;;18.44;85.11;99016.50;5054688;28;20028;-69
2021/08/15 05:32:51;;;;;;;10.25;6.65;;;;;;;18.31;85.04;99008.16;5065191;28;20108;-69
2021/08/15 05:35:16;;;;;;;11.15;7.60;;;;;;;18.28;85.74;98999.44;5062344;28;20079;-69
2021/08/15 05:37:42;;;;;;;18.25;7.30;;;;;;;18.61;85.54;99000.63;5065418;28;20087;-69
2021/08/15 05:40:08;;;;;;;8.95;6.07;;;;;;;19.15;84.02;99003.41;5064590;28;20028;-69
2021/08/15 05:42:34;;;;;;;10.18;5.88;;;;;;;19.28;83.54;99023.25;5065318;28;20031;-69
2021/08/15 05:44:59;;;;;;;11.23;6.35;;;;;;;19.47;82.97;99026.75;5065256;28;20028;-69
2021/08/15 05:47:25;;;;;;;14.93;6.00;;;;;;;19.93;80.72;99028.84;5065253;28;20021;-69
2021/08/15 05:49:50;;;;;;;9.32;5.68;;;;;;;20.34;78.70;99019.63;5063647;28;20029;-69
2021/08/15 05:52:16;;;;;;;12.82;6.20;;;;;;;20.69;78.39;99029.31;5060566;28;20067;-69
2021/08/15 05:54:41;;;;;;;8.65;5.95;;;;;;;21.28;76.10;99026.94;5044120;28;20026;-69
2021/08/15 05:57:07;;;;;;;12.85;6.03;;;;;;;21.65;75.66;99022.16;5053055;28;20029;-69
2021/08/15 05:59:35;;;;;;;14.73;6.53;;;;;;;21.88;73.66;99024.38;5061167;28;20024;-70
2021/08/15 06:02:02;;;;;;;11.75;6.43;;;;;;;22.26;72.97;99237.53;5063396;28;20045;-70
2021/08/15 06:04:27;;;;;;;11.18;6.97;;;;;;;22.55;72.27;99153.56;5062841;28;20535;-70
2021/08/15 06:06:53;;;;;;;8.82;6.50;;;;;;;22.76;70.91;99126.34;5063909;28;20025;-69
2021/08/15 06:09:18;;;;;;;11.63;6.32;;;;;;;23.08;70.07;99111.78;5063887;28;20021;-69
2021/08/15 06:11:44;;;;;;;8.40;6.28;;;;;;;23.19;69.75;99108.41;5062677;28;20048;-69
2021/08/15 06:14:09;;;;;;;14.65;6.00;;;;;;;23.53;69.31;99085.69;5057499;28;20321;-69
2021/08/15 06:16:35;;;;;;;7.13;6.03;;;;;;;23.69;68.24;99057.72;5042504;28;20301;-69
2021/08/15 06:19:00;;;;;;;14.15;7.20;;;;;;;23.60;68.17;99034.13;5043767;28;20048;-69
2021/08/15 06:21:25;;;;;;;10.43;6.22;;;;;;;24.11;67.65;99038.75;5043740;28;20080;-69
2021/08/15 06:23:51;;;;;;;8.32;5.90;;;;;;;24.54;67.07;99010.63;5043657;28;20372;-69
2021/08/15 06:26:17;;;;;;;10.98;6.65;;;;;;;24.65;63.64;98994.59;5043634;28;20049;-69
2021/08/15 06:28:42;;;;;;;16.50;7.00;;;;;;;25.26;64.33;99088.97;5060764;28;20025;-69
2021/08/15 06:31:08;;;;;;;10.65;7.07;;;;;;;25.25;64.41;99014.47;5063478;28;20063;-69
2021/08/15 06:33:33;;;;;;;10.75;6.32;;;;;;;25.85;62.91;99008.25;5063388;28;20134;-69
2021/08/15 06:35:59;;;;;;;9.40;6.28;;;;;;;26.23;61.64;99000.84;5063419;28;20032;-69
2021/08/15 06:38:24;;;;;;;13.13;6.88;;;;;;;26.50;57.68;98977.09;5059438;28;20041;-69
2021/08/15 06:40:50;;;;;;;11.40;7.07;;;;;;;26.63;58.18;98977.88;5054603;28;20087;-69
2021/08/15 06:43:15;;;;;;;15.77;6.88;;;;;;;26.97;58.85;98974.22;5053292;28;20040;-69
2021/08/15 06:45:43;;;;;;;13.18;6.30;;;;;;;27.38;54.23;98966.34;5050319;28;20092;-69
2021/08/15 06:48:08;;;;;;;9.30;6.50;;;;;;;26.95;56.16;98952.72;5050346;28;20017;-70
2021/08/15 06:50:34;;;;;;;13.45;6.78;;;;;;;27.09;54.21;98948.91;5050523;28;20063;-70
2021/08/15 06:53:00;;;;;;;14.80;6.18;;;;;;;27.67;53.71;98967.50;5060220;28;20025;-70
2021/08/15 06:55:26;;;;;;;13.65;5.78;;;;;;;28.17;52.98;98966.81;5061904;28;20097;-72
2021/08/15 06:57:51;;;;;;;9.20;5.78;;;;;;;28.31;54.00;98955.66;5059119;28;20020;-70
2021/08/15 07:00:17;;;;;;;16.98;6.38;;;;;;;28.36;52.60;98934.47;5048100;28;20059;-70
2021/08/15 07:02:48;;;;;;;11.77;5.18;;;;;;;28.29;51.45;98927.88;5045432;28;20044;-70
2021/08/15 07:05:15;;;;;;;16.38;9.50;;;;;;;27.60;54.14;98906.78;5059533;28;20025;-71
2021/08/15 07:07:41;;;;;;;12.35;6.30;;;;;;;28.25;52.72;98915.56;5042780;28;20071;-71
2021/08/15 07:10:07;;;;;;;11.18;5.95;;;;;;;27.80;52.30;98896.97;5047917;28;20025;-71
2021/08/15 07:12:33;;;;;;;10.27;6.20;;;;;;;28.29;51.78;98906.22;5063785;28;20071;-71
2021/08/15 07:14:58;;;;;;;11.32;5.80;;;;;;;28.45;51.88;98917.47;5062655;28;20025;-71
2021/08/15 07:17:23;;;;;;;10.77;5.90;;;;;;;29.26;49.65;98919.25;5063839;28;20016;-71
2021/08/15 07:19:49;;;;;;;16.25;6.78;;;;;;;28.95;49.50;98900.25;5063796;28;20020;-71
2021/08/15 07:22:14;;;;;;;11.82;5.93;;;;;;;28.82;50.77;98893.41;5062594;28;20100;-71
2021/08/15 07:24:39;;;;;;;10.07;5.82;;;;;;;29.64;48.24;98906.59;5063721;28;20088;-71
2021/08/15 07:27:05;;;;;;;12.77;6.80;;;;;;;29.64;47.93;98905.75;5063719;28;20058;-71
2021/08/15 07:29:31;;;;;;;12.18;6.22;;;;;;;29.75;49.46;98911.03;5067507;28;20346;-71
2021/08/15 07:31:56;;;;;;;10.27;6.03;;;;;;;29.08;49.03;98887.34;5067853;28;20029;-71
2021/08/15 07:34:22;;;;;;;14.25;5.20;;;;;;;30.04;48.20;98911.88;5067651;28;20025;-71
2021/08/15 07:36:47;;;;;;;11.23;5.65;;;;;;;29.77;47.07;98892.78;5067691;28;20220;-71
2021/08/15 07:39:14;;;;;;;12.75;5.47;;;;;;;30.32;47.37;98908.31;5067717;28;20094;-71
2021/08/15 07:41:40;;;;;;;8.52;5.38;;;;;;;30.75;44.77;98916.81;5067597;28;20025;-71
2021/08/15 07:44:06;;;;;;;13.95;6.47;;;;;;;29.73;46.96;98894.06;5067573;28;20032;-71
2021/08/15 07:46:31;;;;;;;12.00;5.78;;;;;;;30.35;48.13;98905.28;5067542;28;20029;-71
2021/08/15 07:48:57;;;;;;;11.23;5.78;;;;;;;30.80;45.35;98912.63;5067487;28;20096;-71
2021/08/15 07:51:23;;;;;;;9.57;5.30;;;;;;;30.99;45.70;98895.34;5067446;28;20324;-71
2021/08/15 07:53:48;;;;;;;11.70;5.82;;;;;;;31.45;44.66;98911.59;5067271;28;20092;-71
2021/08/15 07:56:14;;;;;;;8.57;5.05;;;;;;;30.81;46.18;98886.28;5067417;28;20025;-71
2021/08/15 07:58:39;;;;;;;9.10;4.65;;;;;;;31.23;43.40;98899.22;5067315;28;20062;-71
2021/08/15 08:01:04;;;;;;;9.05;4.70;;;;;;;30.98;45.07;98888.22;5067122;28;20040;-71
2021/08/15 08:03:30;;;;;;;12.15;5.13;;;;;;;31.53;42.60;98900.78;5067202;28;20021;-71
2021/08/15 08:05:55;;;;;;;10.10;4.55;;;;;;;31.82;40.84;98896.00;5066005;28;20024;-71
2021/08/15 08:08:21;;;;;;;9.32;4.93;;;;;;;31.71;43.97;98887.19;5065980;28;20021;-71
2021/08/15 08:10:53;;;;;;;10.82;4.65;;;;;;;31.88;40.14;98876.31;5067122;28;20021;-71
2021/08/15 08:13:18;;;;;;;8.93;3.92;;;;;;;31.02;42.34;98835.25;5067018;28;20320;-71
2021/08/15 08:15:44;;;;;;;7.85;3.97;;;;;;;30.38;41.32;98807.22;5067036;28;20020;-71
2021/08/15 08:18:10;;;;;;;10.18;3.97;;;;;;;30.12;42.23;98811.56;5066949;28;20035;-72
2021/08/15 08:20:36;;;;;;;7.32;3.85;;;;;;;29.94;43.41;98799.75;5066916;28;20021;-71
2021/08/15 08:23:03;;;;;;;6.60;3.50;;;;;;;31.25;41.28;98825.63;5066847;28;20021;-71
2021/08/15 08:25:29;;;;;;;8.77;3.58;;;;;;;31.18;40.69;98809.09;5066750;28;20090;-71
2021/08/15 08:27:54;;;;;;;5.13;3.28;;;;;;;31.37;41.19;98804.53;5066745;28;20017;-71
2021/08/15 08:30:19;;;;;;;8.73;3.33;;;;;;;31.62;38.18;98810.03;5067021;28;20117;-71
2021/08/15 08:32:45;;;;;;;7.43;3.40;;;;;;;31.99;39.64;98813.44;5066585;28;20062;-71
2021/08/15 08:35:10;;;;;;;7.57;3.15;;;;;;;31.79;38.97;98779.22;5065520;28;20212;-71
2021/08/15 08:37:36;;;;;;;9.75;3.72;;;;;;;31.58;38.79;98770.56;5066591;28;20355;-72
2021/08/15 08:40:03;;;;;;;7.57;3.70;;;;;;;31.48;43.38;98771.66;5065531;28;20070;-72
2021/08/15 08:42:29;;;;;;;9.70;3.40;;;;;;;32.14;39.66;98787.31;5066500;28;20024;-72
2021/08/15 08:44:56;;;;;;;10.18;3.55;;;;;;;32.61;37.50;98795.94;5066452;28;20017;-72
2021/08/15 08:47:22;;;;;;;6.45;3.25;;;;;;;32.96;37.71;98796.63;5066458;28;20362;-72
2021/08/15 08:49:48;;;;;;;9.25;3.33;;;;;;;33.00;35.86;98780.78;5066339;28;20028;-72
2021/08/15 08:52:14;;;;;;;7.60;3.42;;;;;;;32.45;38.21;98769.47;5065194;28;20021;-71
2021/08/15 08:54:40;;;;;;;13.90;3.88;;;;;;;33.04;39.33;98780.28;5066196;28;20052;-72
2021/08/15 08:57:05;;;;;;;6.95;3.75;;;;;;;33.21;37.92;98772.97;5066236;28;20079;-72
2021/08/15 08:59:31;;;;;;;7.55;3.58;;;;;;;33.29;40.02;98774.88;5066149;28;20025;-72
2021/08/15 09:01:56;;;;;;;6.30;3.80;;;;;;;33.31;38.98;98767.38;5066020;28;20316;-72
2021/08/15 09:04:22;;;;;;;7.70;3.72;;;;;;;33.06;40.68;98759.13;5066112;28;20028;-72
2021/08/15 09:06:48;;;;;;;12.63;4.00;;;;;;;33.70;37.57;98773.91;5066367;28;20066;-72
2021/08/15 09:09:20;;;;;;;7.15;3.90;;;;;;;34.17;34.62;98772.16;5064810;28;20069;-72
2021/08/15 09:11:50;;;;;;;8.43;3.40;;;;;;;33.70;36.41;98758.38;5065997;28;20088;-72
2021/08/15 09:14:24;;;;;;;9.88;3.72;;;;;;;33.54;36.06;98744.72;5065805;28;20024;-72
2021/08/15 09:16:52;;;;;;;6.70;3.40;;;;;;;33.13;36.17;98728.47;5065908;28;20064;-72
2021/08/15 09:19:44;;;;;;;7.38;3.25;;;;;;;33.80;37.39;98745.38;5064687;28;20027;-72
2021/08/15 09:22:26;;;;;;;9.13;3.67;;;;;;;33.59;34.57;98728.69;5064653;28;20312;-72
2021/08/15 09:25:00;;;;;;;7.53;4.13;;;;;;;33.00;36.93;98713.44;5065741;28;20013;-72
2021/08/15 09:27:46;;;;;;;6.75;3.80;;;;;;;32.13;39.68;98695.72;5064530;28;20032;-72
2021/08/15 09:30:17;;;;;;;6.60;3.92;;;;;;;30.75;42.29;98658.59;5065617;28;20021;-72
2021/08/15 09:32:47;;;;;;;10.50;4.05;;;;;;;30.20;42.40;98670.50;5065452;28;20033;-72
2021/08/15 09:35:21;;;;;;;6.85;4.05;;;;;;;30.74;41.32;98694.91;5065831;28;20025;-72
2021/08/15 09:37:52;;;;;;;7.10;3.75;;;;;;;31.88;37.93;98703.91;5065528;28;20090;-72
2021/08/15 09:40:28;;;;;;;;;;;;;;;32.67;37.73;98719.81;5065943;28;20286;-72
2021/08/15 09:42:54;;;;;;;14.00;4.15;;;;;;;32.93;35.83;98715.13;5064227;28;19904;-72
2021/08/15 09:45:38;;;;;;;6.85;3.97;;;;;;;32.93;37.27;98698.78;5064173;28;20032;-72
2021/08/15 09:48:25;;;;;;;10.45;3.83;;;;;;;33.37;38.70;98707.53;5065258;28;20032;-72
2021/08/15 09:51:16;;;;;;;8.07;3.95;;;;;;;33.87;36.95;98710.06;5065109;28;20415;-72
2021/08/15 09:53:43;;;;;;;12.18;4.07;;;;;;;33.98;35.19;98706.97;5065184;28;20320;-72
2021/08/15 09:56:09;;;;;;;8.80;4.03;;;;;;;33.56;37.48;98673.59;5065058;28;20028;-72
2021/08/15 09:58:35;;;;;;;8.73;3.97;;;;;;;33.65;36.19;98673.38;5063905;28;20024;-72
2021/08/15 10:01:06;;;;;;;8.95;4.47;;;;;;;33.54;37.14;98664.69;5064859;28;20044;-72
2021/08/15 10:03:33;;;;;;;;;;;;;;;33.75;35.08;98667.75;5065331;28;20036;-72
2021/08/15 10:05:58;;;;;;;7.47;4.35;;;;;;;32.70;36.53;98632.25;5064900;28;19975;-72
2021/08/15 10:08:24;;;;;;;11.07;4.45;;;;;;;33.15;36.50;98636.41;5063724;28;20221;-72
2021/08/15 10:10:50;;;;;;;7.68;4.25;;;;;;;33.20;36.17;98623.09;5063646;28;20025;-72
2021/08/15 10:13:18;;;;;;;11.15;4.60;;;;;;;33.50;36.95;98634.16;5064768;28;20032;-72
2021/08/15 10:15:55;;;;;;;8.93;4.60;;;;;;;33.63;37.63;98637.19;5065023;28;20031;-72
2021/08/15 10:18:21;;;;;;;8.73;4.90;;;;;;;34.19;35.01;98636.19;5063531;28;20312;-72
2021/08/15 10:20:48;;;;;;;6.25;4.38;;;;;;;34.16;37.70;98639.28;5064716;28;20040;-72
2021/08/15 10:23:14;;;;;;;7.20;4.65;;;;;;;33.11;36.18;98597.69;5064616;28;20032;-72
2021/08/15 10:25:42;;;;;;;9.25;5.38;;;;;;;33.54;39.75;98610.97;5064540;28;20020;-72
2021/08/15 10:28:19;;;;;;;11.35;4.93;;;;;;;33.36;37.56;98601.22;5064508;28;20063;-72
2021/08/15 10:30:45;;;;;;;6.50;4.60;;;;;;;33.17;36.94;98598.88;5064511;28;20028;-72
2021/08/15 10:33:14;;;;;;;9.77;4.97;;;;;;;33.12;39.79;98584.91;5064359;28;20024;-72
2021/08/15 10:35:39;;;;;;;9.98;5.28;;;;;;;33.05;39.45;98612.00;5064434;28;20271;-72
2021/08/15 10:38:14;;;;;;;9.93;5.38;;;;;;;32.46;38.38;98574.94;5064350;28;20021;-72
2021/08/15 10:40:43;;;;;;;9.88;5.28;;;;;;;31.76;41.91;98572.63;5064369;28;20021;-72
2021/08/15 10:43:12;;;;;;;12.52;5.47;;;;;;;32.37;39.80;98576.00;5064322;28;20020;-72
2021/08/15 10:45:39;;;;;;;10.48;5.78;;;;;;;32.03;39.21;98561.56;5063046;28;20032;-72
2021/08/15 10:48:04;;;;;;;17.55;5.72;;;;;;;32.30;38.88;98561.28;5064230;28;20308;-72
2021/08/15 10:50:48;;;;;;;10.02;5.93;;;;;;;32.49;37.82;98555.53;5064167;28;20040;-72
2021/08/15 10:53:25;;;;;;;9.77;5.28;;;;;;;31.90;41.87;98533.94;5064105;28;20098;-72
2021/08/15 10:55:51;;;;;;;12.48;5.55;;;;;;;31.80;42.42;98537.78;5064033;28;20025;-72
2021/08/15 10:58:50;;;;;;;10.55;5.10;;;;;;;33.02;40.06;98561.38;5064089;28;20357;-72
2021/08/15 11:01:17;;;;;;;17.60;5.63;;;;;;;33.19;40.33;98545.84;5063511;28;20071;-72
2021/08/15 11:03:48;;;;;;;15.02;5.20;;;;;;;32.70;40.43;98539.56;5063406;28;20081;-72
2021/08/15 11:06:32;;;;;;;14.45;5.28;;;;;;;32.30;41.92;98525.84;5064017;28;20379;-72
2021/08/15 11:09:03;;;;;;;10.85;5.60;;;;;;;32.51;40.34;98534.44;5063951;28;20205;-72
2021/08/15 11:11:31;;;;;;;11.17;5.77;;;;;;;33.03;38.95;98541.25;5062786;28;20020;-72
2021/08/15 11:14:18;;;;;;;11.98;5.72;;;;;;;32.95;39.49;98522.19;5063742;28;20311;-72
2021/08/15 11:16:46;;;;;;;9.07;5.53;;;;;;;33.22;39.74;98525.56;5062683;28;20108;-72
2021/08/15 11:19:11;;;;;;;10.48;5.63;;;;;;;33.00;39.93;98519.78;5063826;28;20021;-72
2021/08/15 11:22:09;;;;;;;10.32;5.60;;;;;;;32.74;40.44;98497.28;5063792;28;20020;-72
2021/08/15 11:24:44;;;;;;;9.98;5.57;;;;;;;33.11;38.82;98510.41;5063729;28;20393;-72
2021/08/15 11:27:14;;;;;;;9.82;5.63;;;;;;;33.41;39.35;98520.59;5063710;28;20021;-72
2021/08/15 11:29:42;;;;;;;11.45;5.65;;;;;;;33.72;41.67;98512.47;5063719;28;20026;-72